.
WxDataArchive / Data Records for 2007-03-17
2007-03-16 March 2007 2007-03-18

Data Records for Saturday, 17 March 2007

Time	Temp	Chill	HIndex	Humid	Dewpt	 Wind 	HiWind	WindDir	Rain 	Barom 
-----	----	-----	------	-----	-----	------	------	-------	-----	----- 
00:00	27.5	27.5	27.5	63	16.6	0	1	270	0.00	30.132 
00:05	27.5	27.5	27.5	63	16.6	0	1	270	0.00	30.130 
00:10	27.3	27.3	27.3	63	16.4	0	3	338	0.00	30.129 
00:15	27.2	27.2	27.2	63	16.3	0	2	338	0.00	30.131 
00:20	27.2	27.2	27.2	64	16.7	0	2	338	0.00	30.130 
00:25	27.0	27.0	27.0	64	16.5	0	1	338	0.00	30.130 
00:30	26.9	26.9	26.9	64	16.4	0	2	338	0.00	30.127 
00:35	26.7	26.7	26.7	64	16.2	0	2	338	0.00	30.127 
00:40	26.6	26.6	26.6	64	16.1	0	1	338	0.00	30.125 
00:45	26.4	26.4	26.4	64	15.9	0	3	338	0.00	30.125 
00:50	26.3	26.3	26.3	62	15.1	0	5	338	0.00	30.126 
00:55	26.3	26.3	26.3	61	14.7	0	2	292	0.00	30.126 
01:00	26.1	26.1	26.1	61	14.5	0	2	292	0.00	30.126 
01:05	25.8	25.8	25.8	62	14.6	0	2	315	0.00	30.123 
01:10	25.7	25.7	25.7	63	14.9	0	2	315	0.00	30.122 
01:15	25.6	25.6	25.6	63	14.8	0	2	338	0.00	30.122 
01:20	25.4	25.4	25.4	63	14.6	0	2	338	0.00	30.120 
01:25	25.3	25.3	25.3	64	14.9	0	2	338	0.00	30.118 
01:30	25.1	25.1	25.1	65	15.0	0	3	292	0.00	30.118 
01:35	25.0	25.0	25.0	65	14.9	1	4	292	0.00	30.119 
01:40	24.8	24.8	24.8	65	14.7	1	4	270	0.00	30.120 
01:45	24.8	24.8	24.8	66	15.1	0	2	292	0.00	30.120 
01:50	24.7	24.7	24.7	66	15.0	0	2	338	0.00	30.118 
01:55	24.5	24.5	24.5	67	15.1	0	1	338	0.00	30.116 
02:00	24.5	24.5	24.5	67	15.1	1	4	0	0.00	30.119 
02:05	24.4	24.4	24.4	68	15.4	0	2	0	0.00	30.119 
02:10	24.2	24.2	24.2	69	15.5	1	3	315	0.00	30.115 
02:15	24.2	24.2	24.2	69	15.5	0	2	292	0.00	30.110 
02:20	23.9	23.9	23.9	70	15.6	0	6	338	0.00	30.111 
02:25	23.9	23.9	23.9	70	15.6	1	4	338	0.00	30.109 
02:30	23.9	23.9	23.9	71	15.9	0	3	292	0.00	30.109 
02:35	23.8	23.8	23.8	72	16.1	0	2	292	0.00	30.109 
02:40	23.6	23.6	23.6	73	16.2	0	2	315	0.00	30.109 
02:45	23.5	23.5	23.5	74	16.5	1	5	292	0.00	30.108 
02:50	23.5	23.5	23.5	74	16.5	1	2	22	0.00	30.108 
02:55	23.3	23.3	23.3	75	16.6	0	3	22	0.00	30.108 
03:00	23.2	23.2	23.2	75	16.5	1	4	270	0.00	30.107 
03:05	23.0	23.0	23.0	76	16.6	0	3	0	0.00	30.107 
03:10	23.0	23.0	23.0	77	16.9	0	2	292	0.00	30.107 
03:15	23.0	23.0	23.0	77	16.9	1	4	270	0.00	30.107 
03:20	22.9	22.9	22.9	77	16.8	1	4	292	0.00	30.108 
03:25	22.9	22.9	22.9	77	16.8	1	4	315	0.00	30.108 
03:30	22.7	22.7	22.7	77	16.6	1	3	315	0.00	30.108 
03:35	22.7	22.7	22.7	77	16.6	0	2	315	0.00	30.108 
03:40	22.5	22.5	22.5	77	16.4	1	3	315	0.00	30.108 
03:45	22.5	22.5	22.5	77	16.4	1	3	315	0.00	30.109 
03:50	22.4	22.4	22.4	77	16.3	0	2	315	0.00	30.111 
03:55	22.4	22.4	22.4	78	16.6	1	4	270	0.00	30.110 
04:00	22.4	22.4	22.4	78	16.6	1	2	292	0.00	30.111 
04:05	22.2	22.2	22.2	78	16.4	1	3	292	0.00	30.111 
04:10	22.2	22.2	22.2	78	16.4	0	2	270	0.00	30.111 
04:15	22.1	22.1	22.1	78	16.3	1	4	270	0.00	30.112 
04:20	21.9	21.9	21.9	78	16.1	0	2	270	0.00	30.112 
04:25	21.9	21.9	21.9	78	16.1	0	3	315	0.00	30.112 
04:30	21.9	21.9	21.9	78	16.1	0	2	292	0.00	30.112 
04:35	21.9	21.9	21.9	78	16.1	1	4	338	0.00	30.113 
04:40	21.9	21.9	21.9	78	16.1	0	1	338	0.00	30.117 
04:45	21.9	21.9	21.9	77	15.8	1	4	270	0.00	30.119 
04:50	21.9	21.9	21.9	77	15.8	0	2	292	0.00	30.120 
04:55	21.9	21.9	21.9	77	15.8	1	3	292	0.00	30.121 
05:00	21.9	21.9	21.9	77	15.8	0	2	338	0.00	30.120 
05:05	21.8	21.8	21.8	77	15.7	0	1	338	0.00	30.124 
05:10	21.8	21.8	21.8	77	15.7	1	5	292	0.00	30.127 
05:15	21.8	21.8	21.8	77	15.7	0	3	292	0.00	30.128 
05:20	21.8	21.8	21.8	76	15.4	1	4	292	0.00	30.128 
05:25	21.6	21.6	21.6	76	15.2	0	2	292	0.00	30.129 
05:30	21.6	21.6	21.6	76	15.2	0	1	270	0.00	30.128 
05:35	21.6	21.6	21.6	76	15.2	0	3	270	0.00	30.129 
05:40	21.6	21.6	21.6	75	14.9	0	2	292	0.00	30.129 
05:45	21.6	21.6	21.6	75	14.9	1	4	292	0.00	30.130 
05:50	21.6	21.6	21.6	75	14.9	0	2	315	0.00	30.130 
05:55	21.6	21.6	21.6	74	14.6	0	2	315	0.00	30.130 
06:00	21.6	21.6	21.6	74	14.6	1	4	270	0.00	30.130 
06:05	21.6	21.6	21.6	74	14.6	0	2	292	0.00	30.132 
06:10	21.6	21.6	21.6	74	14.6	0	1	292	0.00	30.134 
06:15	21.6	21.6	21.6	74	14.6	0	2	338	0.00	30.135 
06:20	21.4	21.4	21.4	73	14.1	0	3	270	0.00	30.137 
06:25	21.4	21.4	21.4	73	14.1	0	1	270	0.00	30.138 
06:30	21.4	21.4	21.4	73	14.1	0	2	270	0.00	30.140 
06:35	21.3	21.3	21.3	73	14.0	0	2	22	0.00	30.141 
06:40	21.4	21.4	21.4	73	14.1	1	3	315	0.00	30.145 
06:45	21.4	21.4	21.4	73	14.1	1	4	270	0.00	30.147 
06:50	21.4	21.4	21.4	73	14.1	0	2	315	0.00	30.146 
06:55	21.4	21.4	21.4	73	14.1	0	3	270	0.00	30.147 
07:00	21.3	21.3	21.3	73	14.0	0	3	292	0.00	30.148 
07:05	21.3	21.3	21.3	74	14.3	0	2	292	0.00	30.150 
07:10	21.3	21.3	21.3	74	14.3	0	3	292	0.00	30.150 
07:15	21.4	21.4	21.4	74	14.4	1	3	292	0.00	30.150 
07:20	21.8	21.8	21.8	73	14.5	0	3	292	0.00	30.148 
07:25	21.9	21.9	21.9	73	14.6	0	2	292	0.00	30.148 
07:30	22.2	22.2	22.2	72	14.6	1	3	315	0.00	30.149 
07:35	22.5	22.5	22.5	71	14.5	1	5	0	0.00	30.149 
07:40	22.9	22.9	22.9	70	14.6	1	4	315	0.00	30.150 
07:45	23.2	23.2	23.2	69	14.6	1	5	315	0.00	30.150 
07:50	23.5	23.5	23.5	69	14.9	1	4	270	0.00	30.151 
07:55	23.6	23.6	23.6	67	14.3	2	5	315	0.00	30.151 
08:00	23.9	23.9	23.9	67	14.6	1	4	338	0.00	30.153 
08:05	24.2	24.2	24.2	66	14.5	1	4	0	0.00	30.155 
08:10	24.5	24.5	24.5	65	14.4	1	3	338	0.00	30.155 
08:15	24.7	24.7	24.7	65	14.6	1	5	292	0.00	30.157 
08:20	25.0	25.0	25.0	64	14.6	1	4	338	0.00	30.157 
08:25	25.4	25.4	25.4	64	14.9	1	4	338	0.00	30.156 
08:30	25.7	25.7	25.7	62	14.5	1	5	338	0.00	30.156 
08:35	26.0	26.0	26.0	63	15.2	1	5	22	0.00	30.156 
08:40	26.4	26.4	26.4	61	14.8	1	5	292	0.00	30.157 
08:45	26.9	26.9	26.9	60	14.9	1	4	0	0.00	30.159 
08:50	27.2	27.2	27.2	60	15.2	1	3	338	0.00	30.160 
08:55	27.6	27.6	27.6	59	15.2	1	3	338	0.00	30.159 
09:00	28.1	28.1	28.1	58	15.3	1	4	315	0.00	30.160 
09:05	28.4	28.4	28.4	58	15.5	1	4	0	0.00	30.164 
09:10	28.7	28.7	28.7	58	15.8	1	4	338	0.00	30.164 
09:15	29.1	29.1	29.1	57	15.8	2	9	292	0.00	30.167 
09:20	29.7	29.7	29.7	57	16.4	1	6	315	0.00	30.168 
09:25	30.0	30.0	30.0	55	15.8	2	6	0	0.00	30.170 
09:30	30.0	30.0	30.0	54	15.4	2	6	315	0.00	30.171 
09:35	30.1	30.1	30.1	53	15.1	2	6	22	0.00	30.171 
09:40	30.1	30.1	30.1	55	15.9	2	6	338	0.00	30.172 
09:45	30.6	30.6	30.6	53	15.5	1	4	338	0.00	30.173 
09:50	31.2	31.2	31.2	53	16.1	1	5	292	0.00	30.173 
09:55	31.2	31.2	31.2	51	15.2	2	6	0	0.00	30.174 
10:00	31.3	31.3	31.3	50	14.8	2	6	45	0.00	30.174 
10:05	31.2	31.2	31.2	50	14.8	2	10	0	0.00	30.174 
10:10	31.3	31.3	31.3	50	14.8	2	6	45	0.00	30.174 
10:15	31.8	31.8	31.8	54	17.1	1	5	22	0.00	30.173 
10:20	32.5	32.5	32.5	47	14.5	2	5	22	0.00	30.171 
10:25	31.9	31.9	31.9	45	13.0	3	6	315	0.00	30.174 
10:30	32.1	32.1	32.1	47	14.2	2	7	292	0.00	30.174 
10:35	32.4	32.4	32.4	45	13.5	2	6	0	0.00	30.173 
10:40	32.9	32.9	32.9	43	12.9	2	6	68	0.00	30.171 
10:45	33.2	33.2	33.2	45	14.2	1	5	0	0.00	30.171 
10:50	33.7	33.7	33.7	45	14.6	2	5	0	0.00	30.169 
10:55	33.5	33.5	33.5	44	14.0	2	10	22	0.00	30.168 
11:00	33.2	33.2	33.2	42	12.6	2	5	0	0.00	30.165 
11:05	33.4	33.4	33.4	45	14.4	2	7	315	0.00	30.167 
11:10	34.0	34.0	34.0	43	13.9	2	6	22	0.00	30.164 
11:15	34.1	34.1	34.1	45	15.0	1	4	315	0.00	30.162 
11:20	34.4	34.4	34.4	43	14.2	2	5	338	0.00	30.164 
11:25	34.4	34.4	34.4	43	14.2	2	7	315	0.00	30.162 
11:30	34.6	34.6	34.6	41	13.3	2	11	292	0.00	30.160 
11:35	34.6	34.6	34.6	41	13.3	2	11	338	0.00	30.160 
11:40	34.9	34.9	34.9	40	13.1	2	7	338	0.00	30.160 
11:45	35.0	35.0	35.0	38	12.0	2	7	315	0.00	30.159 
11:50	35.2	35.2	35.2	40	13.3	2	4	338	0.00	30.158 
11:55	35.5	35.5	35.5	38	12.4	1	7	338	0.00	30.157 
12:00	35.3	35.3	35.3	35	10.4	2	6	0	0.00	30.158 
12:05	35.5	35.5	35.5	37	11.8	2	7	292	0.00	30.159 
12:10	35.3	35.3	35.3	36	11.0	2	5	22	0.00	30.159 
12:15	35.3	35.3	35.3	37	11.7	2	8	338	0.00	30.157 
12:20	35.8	35.8	35.8	36	11.5	3	6	0	0.00	30.154 
12:25	35.9	35.9	35.9	37	12.2	2	10	0	0.00	30.151 
12:30	36.0	36.0	36.0	36	11.7	2	6	270	0.00	30.148 
12:35	36.2	36.2	36.2	35	11.2	2	5	315	0.00	30.145 
12:40	36.2	36.2	36.2	34	10.6	2	6	292	0.00	30.144 
12:45	36.5	36.5	36.5	33	10.2	1	5	315	0.00	30.146 
12:50	36.9	36.9	36.9	34	11.2	3	7	270	0.00	30.146 
12:55	36.9	36.9	36.9	35	11.8	2	7	338	0.00	30.146 
13:00	37.5	37.5	37.5	37	13.6	2	7	270	0.00	30.144 
13:05	37.5	37.5	37.5	31	9.6	2	7	292	0.00	30.143 
13:10	37.2	37.2	37.2	30	8.7	3	7	270	0.00	30.142 
13:15	36.8	36.8	36.8	32	9.7	2	6	22	0.00	30.139 
13:20	37.3	37.3	37.3	35	12.2	2	5	0	0.00	30.136 
13:25	37.8	37.8	37.8	34	12.0	2	7	338	0.00	30.138 
13:30	37.9	37.9	37.9	32	10.7	1	4	315	0.00	30.134 
13:35	37.9	37.9	37.9	35	12.7	1	5	0	0.00	30.133 
13:40	37.9	37.9	37.9	33	11.4	1	3	90	0.00	30.129 
13:45	37.9	37.9	37.9	34	12.1	2	7	338	0.00	30.128 
13:50	38.0	38.0	38.0	31	10.1	2	4	338	0.00	30.127 
13:55	38.6	38.6	38.6	32	11.3	2	5	270	0.00	30.123 
14:00	38.2	38.2	38.2	33	11.7	2	4	338	0.00	30.126 
14:05	38.2	38.2	38.2	31	10.3	1	5	248	0.00	30.125 
14:10	38.3	38.3	38.3	32	11.1	2	5	292	0.00	30.121 
14:15	38.6	38.6	38.6	31	10.6	3	7	270	0.00	30.118 
14:20	38.9	38.9	38.9	34	13.0	2	5	270	0.00	30.117 
14:25	38.9	38.9	38.9	29	9.4	3	9	270	0.00	30.117 
14:30	38.8	38.8	38.8	31	10.8	3	7	270	0.00	30.116 
14:35	38.6	38.6	38.6	32	11.3	1	4	338	0.00	30.113 
14:40	38.9	38.9	38.9	30	10.1	1	6	315	0.00	30.113 
14:45	38.8	38.8	38.8	33	12.2	2	5	315	0.00	30.113 
14:50	39.2	39.2	39.2	33	12.5	1	5	270	0.00	30.113 
14:55	39.3	39.3	39.3	29	9.7	3	10	270	0.00	30.111 
15:00	39.1	39.1	39.1	30	10.3	2	5	315	0.00	30.111 
15:05	39.3	39.3	39.3	30	10.5	1	5	315	0.00	30.113 
15:10	39.6	39.6	39.6	30	10.7	3	6	270	0.00	30.113 
15:15	39.8	39.8	39.8	31	11.7	3	6	270	0.00	30.112 
15:20	39.5	39.5	39.5	30	10.7	3	10	270	0.00	30.111 
15:25	39.1	39.1	39.1	32	11.8	3	6	292	0.00	30.113 
15:30	38.5	38.5	38.5	31	10.5	2	5	338	0.00	30.112 
15:35	38.5	38.5	38.5	29	9.0	3	7	315	0.00	30.114 
15:40	38.5	38.5	38.5	31	10.5	3	6	292	0.00	30.113 
15:45	38.5	38.5	38.5	31	10.5	2	5	315	0.00	30.113 
15:50	38.6	38.6	38.6	30	9.9	2	7	315	0.00	30.113 
15:55	38.5	38.5	38.5	32	11.2	2	7	315	0.00	30.113 
16:00	38.8	38.8	38.8	35	13.5	2	6	270	0.00	30.112 
16:05	38.8	38.8	38.8	33	12.2	3	10	315	0.00	30.112 
16:10	37.8	37.8	37.8	30	9.2	2	7	292	0.00	30.112 
16:15	37.3	37.3	37.3	31	9.5	2	5	338	0.00	30.113 
16:20	37.8	37.8	37.8	32	10.6	3	9	338	0.00	30.111 
16:25	37.8	37.8	37.8	33	11.3	2	5	338	0.00	30.111 
16:30	37.3	37.3	37.3	32	10.2	2	5	292	0.00	30.111 
16:35	37.2	37.2	37.2	33	10.8	1	5	0	0.00	30.112 
16:40	37.3	37.3	37.3	32	10.2	3	6	338	0.00	30.112 
16:45	37.5	37.5	37.5	33	11.0	2	7	315	0.00	30.108 
16:50	37.5	37.5	37.5	30	8.9	2	5	292	0.00	30.109 
16:55	37.8	37.8	37.8	31	9.9	2	8	338	0.00	30.109 
17:00	37.5	37.5	37.5	31	9.6	2	6	338	0.00	30.105 
17:05	37.3	37.3	37.3	31	9.5	1	9	315	0.00	30.108 
17:10	37.5	37.5	37.5	32	10.4	2	7	315	0.00	30.104 
17:15	37.2	37.2	37.2	29	7.9	3	7	338	0.00	30.107 
17:20	36.6	36.6	36.6	29	7.4	3	7	338	0.00	30.109 
17:25	36.5	36.5	36.5	32	9.5	2	6	292	0.00	30.112 
17:30	36.3	36.3	36.3	32	9.3	2	5	292	0.00	30.112 
17:35	36.3	36.3	36.3	32	9.3	1	6	315	0.00	30.113 
17:40	36.2	36.2	36.2	33	9.9	2	7	270	0.00	30.114 
17:45	36.2	36.2	36.2	35	11.2	2	5	315	0.00	30.114 
17:50	35.9	35.9	35.9	38	12.8	1	4	338	0.00	30.115 
17:55	35.6	35.6	35.6	40	13.7	2	6	270	0.00	30.116 
18:00	35.5	35.5	35.5	40	13.6	2	5	270	0.00	30.117 
18:05	35.6	35.6	35.6	43	15.3	2	5	315	0.00	30.119 
18:10	35.8	35.8	35.8	44	16.0	2	7	270	0.00	30.124 
18:15	35.8	35.8	35.8	43	15.5	3	8	315	0.00	30.126 
18:20	35.2	35.2	35.2	44	15.5	3	6	292	0.00	30.128 
18:25	34.7	34.7	34.7	45	15.6	3	10	315	0.00	30.130 
18:30	34.4	34.4	34.4	47	16.3	3	7	315	0.00	30.133 
18:35	34.1	34.1	34.1	48	16.5	3	10	292	0.00	30.134 
18:40	33.7	33.7	33.7	48	16.1	3	7	292	0.00	30.136 
18:45	33.4	33.4	33.4	48	15.8	2	5	315	0.00	30.136 
18:50	33.1	33.1	33.1	50	16.5	2	9	315	0.00	30.138 
18:55	32.9	32.9	32.9	51	16.8	2	7	270	0.00	30.143 
19:00	32.8	32.8	32.8	51	16.7	2	7	292	0.00	30.146 
19:05	32.5	32.5	32.5	51	16.4	2	5	292	0.00	30.146 
19:10	32.4	32.4	32.4	51	16.3	2	7	315	0.00	30.146 
19:15	32.1	32.1	32.1	52	16.5	2	5	292	0.00	30.147 
19:20	31.9	31.9	31.9	52	16.3	2	6	315	0.00	30.147 
19:25	31.8	31.8	31.8	53	16.6	2	4	338	0.00	30.148 
19:30	31.5	31.5	31.5	53	16.4	1	3	315	0.00	30.148 
19:35	31.2	31.2	31.2	54	16.5	0	2	292	0.00	30.150 
19:40	31.0	31.0	31.0	55	16.8	1	5	292	0.00	30.153 
19:45	31.0	31.0	31.0	55	16.8	2	5	270	0.00	30.154 
19:50	30.9	30.9	30.9	55	16.7	1	4	292	0.00	30.159 
19:55	30.7	30.7	30.7	56	16.9	1	3	315	0.00	30.163 
20:00	30.6	30.6	30.6	57	17.2	2	8	315	0.00	30.164 
20:05	30.4	30.4	30.4	57	17.0	2	10	315	0.00	30.161 
20:10	30.3	30.3	30.3	57	16.9	1	5	315	0.00	30.162 
20:15	30.3	30.3	30.3	57	16.9	2	4	338	0.00	30.164 
20:20	30.1	30.1	30.1	58	17.1	1	3	315	0.00	30.167 
20:25	30.0	30.0	30.0	58	17.0	1	4	338	0.00	30.168 
20:30	29.8	29.8	29.8	58	16.8	0	4	338	0.00	30.169 
20:35	29.7	29.7	29.7	58	16.8	1	4	315	0.00	30.171 
20:40	29.5	29.5	29.5	58	16.6	1	4	292	0.00	30.173 
20:45	29.4	29.4	29.4	58	16.5	1	3	315	0.00	30.175 
20:50	29.3	29.3	29.3	58	16.4	1	4	338	0.00	30.175 
20:55	29.1	29.1	29.1	58	16.2	1	5	338	0.00	30.176 
21:00	29.0	29.0	29.0	58	16.1	1	5	292	0.00	30.176 
21:05	29.0	29.0	29.0	58	16.1	1	3	292	0.00	30.173 
21:10	28.8	28.8	28.8	58	15.9	1	4	338	0.00	30.173 
21:15	28.8	28.8	28.8	59	16.3	2	6	270	0.00	30.175 
21:20	28.7	28.7	28.7	59	16.2	1	6	315	0.00	30.175 
21:25	28.5	28.5	28.5	60	16.4	1	5	292	0.00	30.175 
21:30	28.4	28.4	28.4	61	16.7	1	4	270	0.00	30.178 
21:35	28.2	28.2	28.2	62	16.9	1	3	270	0.00	30.178 
21:40	28.1	28.1	28.1	62	16.8	1	3	315	0.00	30.178 
21:45	28.1	28.1	28.1	62	16.8	1	5	315	0.00	30.177 
21:50	27.9	27.9	27.9	62	16.6	1	3	338	0.00	30.177 
21:55	27.9	27.9	27.9	63	17.0	1	3	292	0.00	30.177 
22:00	27.8	27.8	27.8	63	16.9	1	3	292	0.00	30.177 
22:05	27.6	27.6	27.6	63	16.7	1	5	270	0.00	30.175 
22:10	27.6	27.6	27.6	63	16.7	0	2	315	0.00	30.175 
22:15	27.5	27.5	27.5	63	16.6	1	3	292	0.00	30.176 
22:20	27.5	27.5	27.5	62	16.2	1	4	270	0.00	30.175 
22:25	27.3	27.3	27.3	62	16.0	1	4	315	0.00	30.175 
22:30	27.2	27.2	27.2	62	15.9	0	2	315	0.00	30.175 
22:35	27.0	27.0	27.0	61	15.4	1	3	292	0.00	30.176 
22:40	27.0	27.0	27.0	59	14.6	1	4	292	0.00	30.177 
22:45	27.0	27.0	27.0	58	14.2	0	3	315	0.00	30.179 
22:50	26.9	26.9	26.9	58	14.1	1	3	338	0.00	30.179 
22:55	26.9	26.9	26.9	57	13.7	1	2	270	0.00	30.179 
23:00	26.9	26.9	26.9	56	13.3	1	3	315	0.00	30.179 
23:05	26.9	26.9	26.9	54	12.5	1	3	292	0.00	30.176 
23:10	26.9	26.9	26.9	54	12.5	1	2	292	0.00	30.176 
23:15	26.7	26.7	26.7	54	12.3	0	3	315	0.00	30.176 
23:20	26.6	26.6	26.6	54	12.2	0	2	292	0.00	30.177 
23:25	26.6	26.6	26.6	54	12.2	1	3	292	0.00	30.178 
23:30	26.4	26.4	26.4	54	12.0	1	3	338	0.00	30.181 
23:35	26.3	26.3	26.3	53	11.5	1	5	292	0.00	30.182 
23:40	26.3	26.3	26.3	53	11.5	1	3	292	0.00	30.182 
23:45	26.1	26.1	26.1	54	11.8	0	1	292	0.00	30.184 
23:50	26.1	26.1	26.1	54	11.8	0	3	338	0.00	30.183 
23:55	26.0	26.0	26.0	54	11.7	0	2	270	0.00	30.183 

CoCoRaHS
IN-AL-39
A2 Web Hosting
Creative Commons License
GoDaddy
Look for:

loaded 2017-12-12 01:47:44 • last modified 2010-11-18 10:43:29
Privacy PolicyDisclaimer
• wx.awcolley.com is powered by PmWiki v.2002016 •
• all content (unless otherwise noted) © 2017 A W Colley